createdAt,value
2018-01-27T00:02:02.216Z,92.20
2018-01-27T00:04:31.141Z,91.90
2018-01-27T00:06:59.275Z,91.90
2018-01-27T00:09:28.172Z,91.40
2018-01-27T00:11:57.060Z,91.70
2018-01-27T00:14:26.024Z,90.90
2018-01-27T00:16:54.181Z,90.90
2018-01-27T00:19:22.372Z,90.60
2018-01-27T00:21:50.528Z,90.10
2018-01-27T00:24:18.649Z,90.40
2018-01-27T00:26:47.557Z,90.80
2018-01-27T00:29:16.441Z,90.40
2018-01-27T00:31:45.348Z,90.90
2018-01-27T00:34:13.478Z,90.90
2018-01-27T00:36:41.612Z,90.70
2018-01-27T00:39:09.758Z,90.70
2018-01-27T00:41:37.876Z,90.90
2018-01-27T00:44:06.024Z,91.40
2018-01-27T00:46:34.156Z,91.20
2018-01-27T00:49:03.057Z,91.30
2018-01-27T00:51:31.960Z,91.00
2018-01-27T00:54:00.141Z,91.00
2018-01-27T00:56:28.368Z,90.20
2018-01-27T00:58:56.565Z,90.20
2018-01-27T01:01:25.499Z,90.30
2018-01-27T01:03:53.637Z,90.20
2018-01-27T01:06:22.533Z,90.40
2018-01-27T01:08:51.463Z,90.40
2018-01-27T01:11:19.584Z,90.30
2018-01-27T01:13:48.679Z,89.70
2018-01-27T01:16:17.572Z,90.00
2018-01-27T01:18:46.464Z,90.00
2018-01-27T01:21:15.428Z,89.80
2018-01-27T01:23:43.548Z,89.60
2018-01-27T01:26:12.457Z,90.70
2018-01-27T01:28:40.682Z,90.80
2018-01-27T01:31:09.175Z,90.50
2018-01-27T01:33:38.060Z,90.80
2018-01-27T01:36:06.181Z,90.40
2018-01-27T01:38:34.327Z,90.50
2018-01-27T01:41:03.238Z,90.60
2018-01-27T01:43:36.999Z,90.60
2018-01-27T01:46:05.145Z,90.50
2018-01-27T01:48:33.263Z,90.50
2018-01-27T01:51:02.151Z,90.30
2018-01-27T01:53:31.057Z,90.40
2018-01-27T01:55:59.187Z,90.40
2018-01-27T01:58:27.395Z,90.10
2018-01-27T02:00:55.512Z,90.20
2018-01-27T02:03:23.631Z,90.20
2018-01-27T02:05:52.535Z,90.70
2018-01-27T02:08:21.424Z,90.10
2018-01-27T02:10:50.323Z,90.00
2018-01-27T02:13:18.455Z,90.00
2018-01-27T02:15:46.587Z,89.30
2018-01-27T02:18:14.709Z,90.00
2018-01-27T02:20:42.842Z,90.50
2018-01-27T02:23:11.012Z,90.70
2018-01-27T02:25:39.158Z,90.60
2018-01-27T02:28:08.060Z,90.60
2018-01-27T02:30:36.188Z,90.50
2018-01-27T02:33:04.367Z,90.80
2018-01-27T02:35:32.491Z,90.80
2018-01-27T02:38:00.604Z,90.70
2018-01-27T02:40:28.740Z,90.90
2018-01-27T02:42:56.887Z,90.70
2018-01-27T02:45:24.994Z,90.80
2018-01-27T02:47:53.107Z,90.80
2018-01-27T02:50:21.559Z,90.30
2018-01-27T02:52:49.680Z,90.30
2018-01-27T02:55:18.556Z,90.60
2018-01-27T02:57:46.684Z,90.50
2018-01-27T03:00:14.800Z,90.80
2018-01-27T03:02:42.923Z,90.40
2018-01-27T03:05:11.039Z,90.80
2018-01-27T03:07:39.175Z,90.70
2018-01-27T03:10:07.287Z,90.80
2018-01-27T03:12:35.398Z,91.20
2018-01-27T03:15:03.528Z,91.50
2018-01-27T03:17:31.657Z,91.60
2018-01-27T03:19:59.795Z,91.10
2018-01-27T03:22:28.699Z,91.10
2018-01-27T03:24:57.921Z,90.70
2018-01-27T03:27:26.050Z,90.70
2018-01-27T03:29:54.165Z,91.10
2018-01-27T03:32:22.299Z,91.30
2018-01-27T03:34:50.424Z,91.50
2018-01-27T03:37:18.555Z,91.40
2018-01-27T03:39:47.435Z,91.30
2018-01-27T03:42:15.586Z,91.30
2018-01-27T03:44:43.717Z,91.50
2018-01-27T03:47:12.587Z,91.10
2018-01-27T03:49:41.532Z,91.40
2018-01-27T03:52:09.631Z,91.20
2018-01-27T03:54:37.755Z,91.70
2018-01-27T03:57:05.868Z,90.50
2018-01-27T03:59:33.996Z,90.90
2018-01-27T04:02:02.143Z,90.40
2018-01-27T04:04:31.043Z,90.50
2018-01-27T04:06:59.990Z,90.50
2018-01-27T04:09:28.091Z,90.50
2018-01-27T04:11:56.995Z,91.30
2018-01-27T04:14:25.919Z,90.80
2018-01-27T04:16:54.039Z,90.90
2018-01-27T04:19:22.154Z,91.20
2018-01-27T04:21:50.270Z,91.00
2018-01-27T04:24:18.506Z,91.50
2018-01-27T04:26:46.603Z,91.80
2018-01-27T04:29:14.754Z,91.50
2018-01-27T04:31:42.847Z,91.70
2018-01-27T04:34:11.296Z,91.60
2018-01-27T04:36:39.416Z,91.70
2018-01-27T04:39:07.523Z,91.00
2018-01-27T04:41:36.410Z,90.00
2018-01-27T04:44:05.287Z,90.50
2018-01-27T04:46:33.417Z,90.70
2018-01-27T04:49:01.547Z,90.70
2018-01-27T04:51:29.687Z,91.10
2018-01-27T04:53:57.807Z,91.00
2018-01-27T04:56:26.684Z,91.00
2018-01-27T04:58:55.583Z,91.00
2018-01-27T05:01:24.456Z,91.00
2018-01-27T05:03:52.589Z,91.00
2018-01-27T05:06:20.716Z,91.20
2018-01-27T05:08:49.932Z,91.60
2018-01-27T05:11:18.039Z,91.40
2018-01-27T05:13:46.151Z,91.50
2018-01-27T05:16:15.043Z,91.60
2018-01-27T05:18:43.919Z,91.70
2018-01-27T05:21:12.054Z,91.70
2018-01-27T05:23:40.171Z,92.10
2018-01-27T05:26:08.303Z,91.90
2018-01-27T05:28:36.413Z,92.20
2018-01-27T05:31:04.636Z,92.30
2018-01-27T05:33:33.514Z,91.90
2018-01-27T05:36:01.615Z,91.80
2018-01-27T05:38:29.743Z,92.10
2018-01-27T05:40:58.627Z,92.20
2018-01-27T05:43:27.523Z,92.40
2018-01-27T05:45:56.395Z,92.70
2018-01-27T05:48:24.507Z,92.60
2018-01-27T05:50:52.639Z,92.50
2018-01-27T05:53:20.754Z,92.30
2018-01-27T05:55:48.883Z,92.60
2018-01-27T05:58:17.004Z,92.50
2018-01-27T06:00:45.142Z,92.90
2018-01-27T06:03:13.247Z,93.20
2018-01-27T06:05:41.367Z,93.40
2018-01-27T06:08:09.492Z,93.70
2018-01-27T06:10:37.799Z,93.40
2018-01-27T06:13:05.915Z,93.40
2018-01-27T06:15:34.039Z,93.60
2018-01-27T06:18:03.031Z,93.70
2018-01-27T06:20:31.145Z,93.70
2018-01-27T06:22:59.262Z,94.00
2018-01-27T06:25:27.384Z,94.20
2018-01-27T06:27:55.503Z,94.30
2018-01-27T06:30:23.616Z,94.40
2018-01-27T06:32:51.751Z,94.50
2018-01-27T06:35:19.867Z,94.90
2018-01-27T06:37:48.002Z,94.70
2018-01-27T06:40:16.113Z,94.50
2018-01-27T06:42:44.247Z,95.10
2018-01-27T06:45:12.367Z,95.00
2018-01-27T06:47:40.472Z,94.80
2018-01-27T06:50:09.371Z,94.50
2018-01-27T06:52:37.483Z,94.50
2018-01-27T06:55:05.612Z,94.20
2018-01-27T06:57:34.499Z,94.40
2018-01-27T07:00:03.643Z,94.40
2018-01-27T07:02:31.763Z,94.30
2018-01-27T07:05:00.641Z,94.50
2018-01-27T07:07:28.769Z,94.50
2018-01-27T07:09:56.901Z,94.60
2018-01-27T07:12:25.803Z,94.10
2018-01-27T07:14:54.688Z,93.70
2018-01-27T07:17:23.601Z,93.50
2018-01-27T07:19:52.483Z,93.10
2018-01-27T07:22:21.485Z,93.10
2018-01-27T07:24:49.608Z,93.20
2018-01-27T07:27:17.727Z,93.60
2018-01-27T07:29:45.841Z,92.90
2018-01-27T07:32:14.051Z,92.60
2018-01-27T07:34:42.163Z,92.70
2018-01-27T07:37:10.303Z,92.80
2018-01-27T07:39:39.182Z,92.90
2018-01-27T07:42:08.074Z,92.50
2018-01-27T07:44:36.203Z,92.60
2018-01-27T07:47:04.354Z,92.90
2018-01-27T07:49:33.240Z,93.00
2018-01-27T07:52:01.362Z,93.00
2018-01-27T07:54:29.470Z,93.00
2018-01-27T07:56:58.372Z,93.20
2018-01-27T07:59:26.492Z,93.20
2018-01-27T08:01:54.649Z,93.00
2018-01-27T08:04:22.772Z,92.70
2018-01-27T08:06:51.652Z,93.00
2018-01-27T08:09:19.784Z,93.00
2018-01-27T08:11:47.898Z,92.80
2018-01-27T08:14:16.033Z,92.40
2018-01-27T08:16:44.144Z,93.00
2018-01-27T08:19:12.263Z,92.50
2018-01-27T08:21:40.394Z,92.50
2018-01-27T08:24:09.291Z,92.30
2018-01-27T08:26:38.512Z,91.80
2018-01-27T08:29:06.635Z,91.90
2018-01-27T08:31:34.779Z,91.60
2018-01-27T08:34:02.915Z,91.80
2018-01-27T08:36:31.805Z,91.10
2018-01-27T08:39:01.025Z,91.40
2018-01-27T08:41:29.139Z,91.40
2018-01-27T08:43:57.255Z,92.00
2018-01-27T08:46:26.161Z,91.70
2018-01-27T08:48:54.271Z,91.40
2018-01-27T08:51:22.704Z,91.40
2018-01-27T08:53:51.594Z,87.50
2018-01-27T08:56:20.483Z,85.40
2018-01-27T08:58:48.619Z,85.60
2018-01-27T09:01:16.851Z,84.20
2018-01-27T09:03:45.025Z,81.00
2018-01-27T09:06:13.891Z,83.60
2018-01-27T09:08:42.806Z,83.30
2018-01-27T09:11:11.803Z,79.60
2018-01-27T09:13:39.907Z,79.70
2018-01-27T09:16:08.056Z,78.50
2018-01-27T09:18:36.180Z,75.40
2018-01-27T09:21:04.337Z,75.20
2018-01-27T09:23:32.476Z,73.10
2018-01-27T09:26:00.603Z,71.60
2018-01-27T09:28:28.747Z,71.90
2018-01-27T09:30:56.867Z,73.80
2018-01-27T09:33:25.050Z,78.20
2018-01-27T09:35:53.935Z,84.60
2018-01-27T09:38:22.843Z,86.60
2018-01-27T09:40:51.984Z,83.00
2018-01-27T09:43:20.110Z,82.10
2018-01-27T09:45:48.258Z,79.40
2018-01-27T09:48:17.150Z,77.20
2018-01-27T09:50:46.069Z,78.30
2018-01-27T09:53:14.187Z,78.20
2018-01-27T09:55:42.310Z,76.60
2018-01-27T09:58:10.468Z,75.30
2018-01-27T10:00:39.352Z,73.80
2018-01-27T10:03:08.243Z,72.20
2018-01-27T10:05:37.142Z,69.90
2018-01-27T10:08:05.280Z,69.80
2018-01-27T10:10:33.463Z,69.50
2018-01-27T10:13:01.553Z,70.20
2018-01-27T10:15:30.451Z,69.10
2018-01-27T10:17:59.343Z,71.00
2018-01-27T10:20:28.257Z,76.00
2018-01-27T10:22:56.732Z,76.00
2018-01-27T10:25:24.851Z,74.00
2018-01-27T10:27:52.971Z,75.50
2018-01-27T10:30:21.159Z,73.50
2018-01-27T10:32:49.272Z,71.60
2018-01-27T10:35:17.712Z,69.70
2018-01-27T10:37:45.843Z,68.10
2018-01-27T10:40:13.972Z,67.50
2018-01-27T10:42:42.132Z,62.60
2018-01-27T10:45:10.240Z,63.80
2018-01-27T10:47:38.408Z,68.40
2018-01-27T10:50:06.538Z,71.80
2018-01-27T10:52:34.663Z,75.40
2018-01-27T10:55:02.793Z,75.60
2018-01-27T10:57:30.899Z,76.00
2018-01-27T10:59:59.055Z,75.90
2018-01-27T11:02:27.170Z,71.90
2018-01-27T11:04:55.393Z,71.40
2018-01-27T11:07:23.515Z,69.90
2018-01-27T11:09:51.647Z,69.70
2018-01-27T11:12:19.816Z,70.60
2018-01-27T11:14:47.943Z,68.50
2018-01-27T11:17:16.059Z,68.00
2018-01-27T11:19:44.203Z,65.80
2018-01-27T11:22:19.747Z,69.50
2018-01-27T11:24:48.656Z,66.50
2018-01-27T11:27:16.795Z,66.20
2018-01-27T11:29:44.935Z,63.40
2018-01-27T11:32:13.084Z,60.40
2018-01-27T11:34:41.200Z,61.50
2018-01-27T11:37:09.346Z,61.00
2018-01-27T11:39:37.531Z,61.40
2018-01-27T11:42:05.692Z,58.80
2018-01-27T11:44:33.869Z,62.40
2018-01-27T11:47:02.076Z,64.80
2018-01-27T11:49:30.527Z,66.80
2018-01-27T11:51:58.659Z,68.70
2018-01-27T11:54:27.551Z,68.50
2018-01-27T11:56:56.488Z,66.70
2018-01-27T11:59:24.591Z,66.50
2018-01-27T12:01:52.735Z,62.60
2018-01-27T12:04:20.859Z,61.80
2018-01-27T12:06:49.828Z,63.50
2018-01-27T12:09:18.109Z,63.50
2018-01-27T12:11:46.247Z,61.50
2018-01-27T12:14:14.376Z,58.70
2018-01-27T12:16:43.312Z,54.20
2018-01-27T12:19:11.433Z,54.00
2018-01-27T12:21:39.556Z,57.40
2018-01-27T12:24:07.823Z,58.10
2018-01-27T12:26:35.944Z,59.70
2018-01-27T12:29:04.066Z,59.00
2018-01-27T12:31:32.222Z,56.90
2018-01-27T12:34:01.128Z,59.90
2018-01-27T12:36:29.254Z,59.50
2018-01-27T12:38:57.436Z,58.80
2018-01-27T12:41:25.566Z,58.80
2018-01-27T12:43:53.728Z,56.50
2018-01-27T12:46:21.855Z,58.30
2018-01-27T12:48:49.977Z,59.40
2018-01-27T12:51:18.095Z,58.10
2018-01-27T12:53:46.231Z,57.70
2018-01-27T12:56:14.371Z,59.10
2018-01-27T12:58:43.277Z,59.00
2018-01-27T13:01:11.760Z,59.20
2018-01-27T13:03:39.884Z,57.00
2018-01-27T13:06:08.006Z,59.80
2018-01-27T13:08:36.148Z,60.70
2018-01-27T13:11:04.365Z,60.10
2018-01-27T13:13:32.476Z,59.90
2018-01-27T13:16:00.928Z,59.80
2018-01-27T13:18:29.068Z,61.00
2018-01-27T13:20:57.977Z,56.70
2018-01-27T13:23:26.095Z,56.50
2018-01-27T13:25:54.232Z,58.10
2018-01-27T13:28:22.348Z,55.70
2018-01-27T13:30:50.488Z,55.80
2018-01-27T13:33:18.602Z,56.60
2018-01-27T13:35:46.716Z,57.50
2018-01-27T13:38:14.863Z,56.60
2018-01-27T13:40:43.780Z,55.90
2018-01-27T13:43:11.889Z,55.40
2018-01-27T13:45:40.037Z,55.90
2018-01-27T13:48:08.312Z,55.60
2018-01-27T13:50:36.440Z,56.70
2018-01-27T13:53:05.349Z,57.10
2018-01-27T13:55:34.235Z,57.90
2018-01-27T13:58:03.132Z,56.20
2018-01-27T14:00:32.332Z,55.20
2018-01-27T14:03:00.523Z,54.80
2018-01-27T14:05:28.634Z,55.70
2018-01-27T14:07:57.081Z,52.20
2018-01-27T14:10:25.208Z,51.50
2018-01-27T14:12:53.328Z,51.90
2018-01-27T14:15:21.490Z,51.40
2018-01-27T14:17:49.621Z,52.10
2018-01-27T14:20:18.735Z,55.30
2018-01-27T14:22:46.891Z,59.70
2018-01-27T14:25:15.024Z,58.00
2018-01-27T14:27:43.147Z,57.90
2018-01-27T14:30:12.076Z,60.10
2018-01-27T14:32:40.215Z,59.00
2018-01-27T14:35:08.340Z,58.80
2018-01-27T14:37:36.480Z,59.30
2018-01-27T14:40:05.403Z,61.80
2018-01-27T14:42:33.548Z,61.30
2018-01-27T14:45:02.762Z,63.00
2018-01-27T14:47:30.895Z,63.00
2018-01-27T14:49:59.110Z,62.00
2018-01-27T14:52:27.283Z,64.70
2018-01-27T14:54:55.396Z,66.90
2018-01-27T14:57:23.526Z,67.90
2018-01-27T14:59:51.659Z,69.90
2018-01-27T15:02:19.777Z,71.30
2018-01-27T15:04:47.896Z,72.20
2018-01-27T15:07:16.040Z,73.80
2018-01-27T15:09:44.155Z,75.60
2018-01-27T15:12:12.284Z,76.50
2018-01-27T15:14:40.415Z,76.60
2018-01-27T15:17:09.312Z,77.30
2018-01-27T15:19:38.187Z,77.40
2018-01-27T15:22:07.089Z,78.30
2018-01-27T15:24:35.987Z,78.20
2018-01-27T15:27:04.897Z,78.90
2018-01-27T15:29:33.774Z,79.20
2018-01-27T15:32:01.908Z,79.40
2018-01-27T15:34:30.033Z,79.70
2018-01-27T15:36:58.519Z,79.30
2018-01-27T15:39:26.644Z,78.50
2018-01-27T15:41:54.771Z,79.90
2018-01-27T15:44:22.906Z,80.20
2018-01-27T15:46:51.782Z,80.60
2018-01-27T15:49:19.897Z,80.60
2018-01-27T15:51:48.035Z,81.00
2018-01-27T15:54:16.139Z,80.50
2018-01-27T15:56:44.252Z,80.30
2018-01-27T15:59:12.685Z,80.80
2018-01-27T16:01:40.828Z,80.80
2018-01-27T16:04:08.939Z,81.50
2018-01-27T16:06:37.073Z,82.30
2018-01-27T16:09:05.208Z,82.70
2018-01-27T16:11:33.312Z,83.20
2018-01-27T16:14:01.461Z,82.20
2018-01-27T16:16:29.588Z,81.70
2018-01-27T16:18:58.469Z,82.20
2018-01-27T16:21:27.411Z,82.50
2018-01-27T16:23:55.566Z,81.80
2018-01-27T16:26:24.434Z,83.20
2018-01-27T16:28:53.357Z,83.70
2018-01-27T16:31:21.480Z,83.60
2018-01-27T16:33:50.448Z,84.20
2018-01-27T16:36:18.593Z,83.70
2018-01-27T16:38:46.707Z,83.60
2018-01-27T16:41:14.833Z,84.30
2018-01-27T16:43:42.968Z,85.10
2018-01-27T16:46:11.079Z,85.00
2018-01-27T16:48:39.248Z,85.30
2018-01-27T16:51:07.375Z,85.10
2018-01-27T16:53:36.462Z,84.40
2018-01-27T16:56:04.701Z,84.10
2018-01-27T16:58:33.179Z,83.50
2018-01-27T17:01:01.288Z,82.80
2018-01-27T17:03:29.529Z,81.50
2018-01-27T17:05:58.039Z,80.60
2018-01-27T17:08:26.120Z,79.30
2018-01-27T17:10:54.247Z,78.90
2018-01-27T17:13:22.384Z,77.60
2018-01-27T17:15:50.723Z,77.30
2018-01-27T17:18:18.843Z,77.30
2018-01-27T17:20:46.980Z,77.20
2018-01-27T17:23:15.084Z,77.30
2018-01-27T17:25:43.201Z,77.00
2018-01-27T17:28:12.094Z,75.60
2018-01-27T17:30:40.210Z,76.00
2018-01-27T17:33:08.321Z,76.20
2018-01-27T17:35:37.534Z,77.50
2018-01-27T17:38:05.680Z,77.10
2018-01-27T17:40:34.548Z,76.80
2018-01-27T17:43:02.972Z,76.60
2018-01-27T17:45:31.105Z,76.80
2018-01-27T17:47:59.218Z,77.20
2018-01-27T17:50:27.353Z,77.20
2018-01-27T17:52:55.469Z,76.80
2018-01-27T17:55:24.330Z,77.20
2018-01-27T17:57:53.222Z,77.30
2018-01-27T18:00:22.103Z,77.30
2018-01-27T18:02:50.209Z,76.60
2018-01-27T18:05:18.336Z,76.50
2018-01-27T18:07:46.442Z,76.90
2018-01-27T18:10:15.361Z,77.20
2018-01-27T18:12:43.508Z,76.40
2018-01-27T18:15:12.418Z,77.40
2018-01-27T18:17:40.513Z,77.30
2018-01-27T18:20:08.642Z,77.40
2018-01-27T18:22:37.531Z,77.80
2018-01-27T18:25:06.423Z,78.00
2018-01-27T18:27:35.322Z,78.50
2018-01-27T18:30:03.434Z,78.00
2018-01-27T18:32:31.545Z,78.40
2018-01-27T18:34:59.675Z,78.40
2018-01-27T18:37:27.803Z,78.20
2018-01-27T18:39:56.672Z,78.70
2018-01-27T18:42:24.803Z,78.50
2018-01-27T18:44:53.141Z,78.70
2018-01-27T18:47:21.304Z,78.90
2018-01-27T18:49:49.443Z,78.60
2018-01-27T18:52:17.559Z,78.90
2018-01-27T18:54:46.452Z,78.30
2018-01-27T18:57:15.700Z,78.10
2018-01-27T18:59:43.822Z,78.20
2018-01-27T19:02:12.752Z,78.30
2018-01-27T19:04:40.966Z,78.20
2018-01-27T19:07:09.071Z,77.70
2018-01-27T19:09:37.971Z,78.30
2018-01-27T19:12:06.979Z,78.40
2018-01-27T19:14:35.103Z,78.30
2018-01-27T19:17:03.243Z,77.60
2018-01-27T19:19:31.371Z,78.30
2018-01-27T19:22:00.256Z,77.60
2018-01-27T19:24:29.139Z,78.10
2018-01-27T19:26:57.269Z,78.30
2018-01-27T19:29:25.376Z,77.60
2018-01-27T19:31:53.491Z,78.30
2018-01-27T19:34:21.633Z,77.90
2018-01-27T19:36:49.738Z,77.50
2018-01-27T19:39:17.839Z,78.20
2018-01-27T19:41:45.976Z,78.00
2018-01-27T19:44:14.106Z,78.00
2018-01-27T19:46:42.245Z,77.70
2018-01-27T19:49:10.377Z,78.00
2018-01-27T19:51:39.417Z,78.10
2018-01-27T19:54:07.991Z,79.00
2018-01-27T19:56:36.236Z,77.50
2018-01-27T19:59:05.176Z,77.40
2018-01-27T20:01:33.324Z,77.40
2018-01-27T20:04:02.287Z,77.90
2018-01-27T20:06:30.486Z,77.60
2018-01-27T20:08:58.659Z,77.70
2018-01-27T20:11:26.767Z,77.70
2018-01-27T20:13:54.979Z,78.10
2018-01-27T20:16:23.155Z,77.90
2018-01-27T20:18:51.295Z,77.50
2018-01-27T20:21:19.403Z,77.80
2018-01-27T20:23:48.288Z,78.40
2018-01-27T20:26:16.416Z,77.30
2018-01-27T20:28:44.588Z,77.40
2018-01-27T20:31:13.039Z,77.70
2018-01-27T20:33:41.914Z,77.30
2018-01-27T20:36:10.800Z,77.30
2018-01-27T20:38:38.979Z,77.30
2018-01-27T20:41:07.075Z,77.50
2018-01-27T20:43:35.463Z,77.70
2018-01-27T20:46:03.579Z,77.40
2018-01-27T20:48:31.700Z,76.10
2018-01-27T20:50:59.824Z,76.60
2018-01-27T20:53:28.187Z,76.50
2018-01-27T20:55:56.322Z,76.30
2018-01-27T20:58:24.510Z,76.30
2018-01-27T21:00:53.375Z,76.20
2018-01-27T21:03:22.285Z,76.10
2018-01-27T21:05:50.401Z,75.90
2018-01-27T21:08:18.515Z,75.80
2018-01-27T21:10:47.430Z,75.70
2018-01-27T21:13:15.527Z,75.60
2018-01-27T21:15:43.672Z,75.30
2018-01-27T21:18:12.550Z,75.80
2018-01-27T21:20:41.431Z,75.20
2018-01-27T21:23:10.586Z,75.10
2018-01-27T21:25:38.701Z,75.00
2018-01-27T21:28:07.576Z,74.60
2018-01-27T21:30:35.704Z,74.50
2018-01-27T21:33:03.807Z,74.80
2018-01-27T21:35:31.945Z,74.40
2018-01-27T21:38:00.668Z,74.80
2018-01-27T21:40:28.775Z,74.90
2018-01-27T21:42:57.663Z,74.30
2018-01-27T21:45:26.563Z,74.30
2018-01-27T21:47:54.952Z,74.30
2018-01-27T21:50:23.062Z,74.30
2018-01-27T21:52:51.208Z,74.00
2018-01-27T21:55:19.383Z,74.00
2018-01-27T21:57:47.496Z,74.80
2018-01-27T22:00:15.626Z,74.30
2018-01-27T22:02:43.747Z,73.40
2018-01-27T22:05:11.856Z,74.10
2018-01-27T22:07:40.760Z,73.70
2018-01-27T22:10:09.619Z,72.30
2018-01-27T22:12:38.544Z,72.90
2018-01-27T22:15:06.672Z,72.50
2018-01-27T22:17:34.775Z,72.40
2018-01-27T22:20:03.656Z,71.40
2018-01-27T22:22:32.529Z,71.00
2018-01-27T22:25:00.672Z,70.80
2018-01-27T22:27:28.791Z,71.00
2018-01-27T22:29:57.658Z,70.60
2018-01-27T22:32:25.787Z,70.50
2018-01-27T22:34:53.893Z,69.40
2018-01-27T22:37:22.020Z,69.30
2018-01-27T22:39:50.123Z,68.90
2018-01-27T22:42:18.244Z,69.40
2018-01-27T22:44:47.126Z,69.80
2018-01-27T22:47:15.246Z,69.50
2018-01-27T22:49:43.719Z,68.90
2018-01-27T22:52:12.691Z,69.10
2018-01-27T22:54:41.569Z,68.30
2018-01-27T22:57:09.692Z,68.40
2018-01-27T22:59:37.798Z,68.80
2018-01-27T23:02:05.938Z,69.40
2018-01-27T23:04:34.046Z,69.40
2018-01-27T23:07:02.160Z,69.70
2018-01-27T23:09:30.287Z,71.30
2018-01-27T23:11:58.392Z,72.10
2018-01-27T23:14:27.314Z,73.40
2018-01-27T23:16:55.426Z,73.50
2018-01-27T23:19:23.551Z,75.10
2018-01-27T23:21:51.671Z,75.80
2018-01-27T23:24:19.775Z,75.90
2018-01-27T23:26:48.671Z,76.50
2018-01-27T23:29:16.806Z,76.70
2018-01-27T23:31:44.920Z,76.70
2018-01-27T23:34:13.042Z,76.00
2018-01-27T23:36:41.163Z,77.10
2018-01-27T23:39:10.028Z,75.60
2018-01-27T23:41:38.135Z,75.60
2018-01-27T23:44:06.260Z,75.20
2018-01-27T23:46:34.373Z,75.30
2018-01-27T23:49:02.560Z,76.50
2018-01-27T23:51:31.450Z,77.40
2018-01-27T23:54:00.327Z,77.60
2018-01-27T23:56:29.208Z,77.20
2018-01-27T23:58:58.087Z,76.80
